sensor_id;sensor_type;location;lat;lon;timestamp;temperature;humidity
41630;DHT22;27322;49.488;8.480;2024-02-16T00:00:48;13.50;99.90
41630;DHT22;27322;49.488;8.480;2024-02-16T00:03:13;13.50;99.90
41630;DHT22;27322;49.488;8.480;2024-02-16T00:05:39;13.50;99.90
41630;DHT22;27322;49.488;8.480;2024-02-16T00:08:05;13.50;99.90
41630;DHT22;27322;49.488;8.480;2024-02-16T00:10:30;13.50;99.90
41630;DHT22;27322;49.488;8.480;2024-02-16T00:12:56;13.50;99.90
41630;DHT22;27322;49.488;8.480;2024-02-16T00:15:22;13.50;99.90
41630;DHT22;27322;49.488;8.480;2024-02-16T00:17:49;13.50;99.90
41630;DHT22;27322;49.488;8.480;2024-02-16T00:20:14;13.50;99.90
41630;DHT22;27322;49.488;8.480;2024-02-16T00:22:40;13.50;99.90
41630;DHT22;27322;49.488;8.480;2024-02-16T00:25:06;13.50;99.90
41630;DHT22;27322;49.488;8.480;2024-02-16T00:27:32;13.50;99.90
41630;DHT22;27322;49.488;8.480;2024-02-16T00:29:57;13.50;99.90
41630;DHT22;27322;49.488;8.480;2024-02-16T00:32:23;13.50;99.90
41630;DHT22;27322;49.488;8.480;2024-02-16T00:34:51;13.50;99.90
41630;DHT22;27322;49.488;8.480;2024-02-16T00:37:19;13.50;99.90
41630;DHT22;27322;49.488;8.480;2024-02-16T00:39:44;13.50;99.90
41630;DHT22;27322;49.488;8.480;2024-02-16T00:42:10;13.50;99.90
41630;DHT22;27322;49.488;8.480;2024-02-16T00:44:36;13.50;99.90
41630;DHT22;27322;49.488;8.480;2024-02-16T00:47:02;13.40;99.90
41630;DHT22;27322;49.488;8.480;2024-02-16T00:49:28;13.50;99.90
41630;DHT22;27322;49.488;8.480;2024-02-16T00:51:53;13.40;99.90
41630;DHT22;27322;49.488;8.480;2024-02-16T00:54:19;13.40;99.90
41630;DHT22;27322;49.488;8.480;2024-02-16T00:56:45;13.40;99.90
41630;DHT22;27322;49.488;8.480;2024-02-16T00:59:12;13.40;99.90
41630;DHT22;27322;49.488;8.480;2024-02-16T01:01:38;13.40;99.90
41630;DHT22;27322;49.488;8.480;2024-02-16T01:04:04;13.40;99.90
41630;DHT22;27322;49.488;8.480;2024-02-16T01:06:29;13.40;99.90
41630;DHT22;27322;49.488;8.480;2024-02-16T01:08:55;13.40;99.90
41630;DHT22;27322;49.488;8.480;2024-02-16T01:11:22;13.40;99.90
41630;DHT22;27322;49.488;8.480;2024-02-16T01:13:47;13.40;99.90
41630;DHT22;27322;49.488;8.480;2024-02-16T01:16:13;13.40;99.90
41630;DHT22;27322;49.488;8.480;2024-02-16T01:18:39;13.40;99.90
41630;DHT22;27322;49.488;8.480;2024-02-16T01:21:05;13.40;99.90
41630;DHT22;27322;49.488;8.480;2024-02-16T01:23:31;13.40;99.90
41630;DHT22;27322;49.488;8.480;2024-02-16T01:25:56;13.30;99.90
41630;DHT22;27322;49.488;8.480;2024-02-16T01:28:22;13.30;99.90
41630;DHT22;27322;49.488;8.480;2024-02-16T01:30:48;13.30;99.90
41630;DHT22;27322;49.488;8.480;2024-02-16T01:33:14;13.30;99.90
41630;DHT22;27322;49.488;8.480;2024-02-16T01:35:40;13.30;99.90
41630;DHT22;27322;49.488;8.480;2024-02-16T01:38:05;13.30;99.90
41630;DHT22;27322;49.488;8.480;2024-02-16T01:40:31;13.30;99.90
41630;DHT22;27322;49.488;8.480;2024-02-16T01:42:57;13.30;99.90
41630;DHT22;27322;49.488;8.480;2024-02-16T01:45:22;13.30;99.90
41630;DHT22;27322;49.488;8.480;2024-02-16T01:47:50;13.30;99.90
41630;DHT22;27322;49.488;8.480;2024-02-16T01:50:17;13.30;99.90
41630;DHT22;27322;49.488;8.480;2024-02-16T01:52:44;13.30;99.90
41630;DHT22;27322;49.488;8.480;2024-02-16T01:55:11;13.30;99.90
41630;DHT22;27322;49.488;8.480;2024-02-16T01:57:39;13.30;99.90
41630;DHT22;27322;49.488;8.480;2024-02-16T02:00:05;13.30;99.90
41630;DHT22;27322;49.488;8.480;2024-02-16T02:02:36;13.30;99.90
41630;DHT22;27322;49.488;8.480;2024-02-16T02:05:02;13.30;99.90
41630;DHT22;27322;49.488;8.480;2024-02-16T02:07:29;13.30;99.90
41630;DHT22;27322;49.488;8.480;2024-02-16T02:09:55;13.30;99.90
41630;DHT22;27322;49.488;8.480;2024-02-16T02:12:21;13.30;99.90
41630;DHT22;27322;49.488;8.480;2024-02-16T02:14:50;13.30;99.90
41630;DHT22;27322;49.488;8.480;2024-02-16T02:17:19;13.30;99.90
41630;DHT22;27322;49.488;8.480;2024-02-16T02:19:48;13.30;99.90
41630;DHT22;27322;49.488;8.480;2024-02-16T02:22:20;13.30;99.90
41630;DHT22;27322;49.488;8.480;2024-02-16T02:24:47;13.30;99.90
41630;DHT22;27322;49.488;8.480;2024-02-16T02:27:13;13.30;99.90
41630;DHT22;27322;49.488;8.480;2024-02-16T02:29:39;13.30;99.90
41630;DHT22;27322;49.488;8.480;2024-02-16T02:32:06;13.30;99.90
41630;DHT22;27322;49.488;8.480;2024-02-16T02:34:31;13.30;99.90
41630;DHT22;27322;49.488;8.480;2024-02-16T02:36:57;13.30;99.90
41630;DHT22;27322;49.488;8.480;2024-02-16T02:39:23;13.30;99.90
41630;DHT22;27322;49.488;8.480;2024-02-16T02:41:49;13.30;99.90
41630;DHT22;27322;49.488;8.480;2024-02-16T02:44:18;13.30;99.90
41630;DHT22;27322;49.488;8.480;2024-02-16T02:46:45;13.30;99.90
41630;DHT22;27322;49.488;8.480;2024-02-16T02:49:10;13.20;99.90
41630;DHT22;27322;49.488;8.480;2024-02-16T02:51:36;13.20;99.90
41630;DHT22;27322;49.488;8.480;2024-02-16T02:54:01;13.20;99.90
41630;DHT22;27322;49.488;8.480;2024-02-16T02:56:27;13.20;99.90
41630;DHT22;27322;49.488;8.480;2024-02-16T02:58:52;13.20;99.90
41630;DHT22;27322;49.488;8.480;2024-02-16T03:01:18;13.20;99.90
41630;DHT22;27322;49.488;8.480;2024-02-16T03:03:46;13.20;99.90
41630;DHT22;27322;49.488;8.480;2024-02-16T03:06:12;13.10;99.90
41630;DHT22;27322;49.488;8.480;2024-02-16T03:08:37;13.20;99.90
41630;DHT22;27322;49.488;8.480;2024-02-16T03:11:03;13.20;99.90
41630;DHT22;27322;49.488;8.480;2024-02-16T03:13:29;13.10;99.90
41630;DHT22;27322;49.488;8.480;2024-02-16T03:15:55;13.10;99.90
41630;DHT22;27322;49.488;8.480;2024-02-16T03:18:21;13.10;99.90
41630;DHT22;27322;49.488;8.480;2024-02-16T03:20:47;13.20;99.90
41630;DHT22;27322;49.488;8.480;2024-02-16T03:23:15;13.10;99.90
41630;DHT22;27322;49.488;8.480;2024-02-16T03:25:41;13.10;99.90
41630;DHT22;27322;49.488;8.480;2024-02-16T03:28:13;13.10;99.90
41630;DHT22;27322;49.488;8.480;2024-02-16T03:30:39;13.20;99.90
41630;DHT22;27322;49.488;8.480;2024-02-16T03:33:05;13.10;99.90
41630;DHT22;27322;49.488;8.480;2024-02-16T03:35:31;13.10;99.90
41630;DHT22;27322;49.488;8.480;2024-02-16T03:37:56;13.10;99.90
41630;DHT22;27322;49.488;8.480;2024-02-16T03:40:25;13.10;99.90
41630;DHT22;27322;49.488;8.480;2024-02-16T03:42:54;13.10;99.90
41630;DHT22;27322;49.488;8.480;2024-02-16T03:45:20;13.10;99.90
41630;DHT22;27322;49.488;8.480;2024-02-16T03:47:47;13.00;99.90
41630;DHT22;27322;49.488;8.480;2024-02-16T03:50:14;13.00;99.90
41630;DHT22;27322;49.488;8.480;2024-02-16T03:52:40;13.00;99.90
41630;DHT22;27322;49.488;8.480;2024-02-16T03:55:06;13.00;99.90
41630;DHT22;27322;49.488;8.480;2024-02-16T03:57:32;13.00;99.90
41630;DHT22;27322;49.488;8.480;2024-02-16T03:59:57;13.00;99.90
41630;DHT22;27322;49.488;8.480;2024-02-16T04:02:24;12.90;99.90
41630;DHT22;27322;49.488;8.480;2024-02-16T04:04:50;12.90;99.90
41630;DHT22;27322;49.488;8.480;2024-02-16T04:07:16;12.90;99.90
41630;DHT22;27322;49.488;8.480;2024-02-16T04:09:42;12.90;99.90
41630;DHT22;27322;49.488;8.480;2024-02-16T04:12:07;12.90;99.90
41630;DHT22;27322;49.488;8.480;2024-02-16T04:14:33;12.90;99.90
41630;DHT22;27322;49.488;8.480;2024-02-16T04:16:59;12.80;99.90
41630;DHT22;27322;49.488;8.480;2024-02-16T04:19:28;12.80;99.90
41630;DHT22;27322;49.488;8.480;2024-02-16T04:21:54;12.80;99.90
41630;DHT22;27322;49.488;8.480;2024-02-16T04:24:19;12.80;99.90
41630;DHT22;27322;49.488;8.480;2024-02-16T04:26:45;12.80;99.90
41630;DHT22;27322;49.488;8.480;2024-02-16T04:29:11;12.80;99.90
41630;DHT22;27322;49.488;8.480;2024-02-16T04:31:40;12.80;99.90
41630;DHT22;27322;49.488;8.480;2024-02-16T04:34:10;12.80;99.90
41630;DHT22;27322;49.488;8.480;2024-02-16T04:36:36;12.80;99.90
41630;DHT22;27322;49.488;8.480;2024-02-16T04:39:01;12.80;99.90
41630;DHT22;27322;49.488;8.480;2024-02-16T04:41:27;12.80;99.90
41630;DHT22;27322;49.488;8.480;2024-02-16T04:43:53;12.80;99.90
41630;DHT22;27322;49.488;8.480;2024-02-16T04:46:19;12.80;99.90
41630;DHT22;27322;49.488;8.480;2024-02-16T04:48:44;12.80;99.90
41630;DHT22;27322;49.488;8.480;2024-02-16T04:51:13;12.80;99.90
41630;DHT22;27322;49.488;8.480;2024-02-16T04:53:39;12.80;99.90
41630;DHT22;27322;49.488;8.480;2024-02-16T04:56:04;12.80;99.90
41630;DHT22;27322;49.488;8.480;2024-02-16T04:58:30;12.80;99.90
41630;DHT22;27322;49.488;8.480;2024-02-16T05:00:56;12.80;99.90
41630;DHT22;27322;49.488;8.480;2024-02-16T05:03:22;12.80;99.90
41630;DHT22;27322;49.488;8.480;2024-02-16T05:05:48;12.80;99.90
41630;DHT22;27322;49.488;8.480;2024-02-16T05:08:14;12.80;99.90
41630;DHT22;27322;49.488;8.480;2024-02-16T05:10:39;12.80;99.90
41630;DHT22;27322;49.488;8.480;2024-02-16T05:13:05;12.70;99.90
41630;DHT22;27322;49.488;8.480;2024-02-16T05:15:31;12.80;99.90
41630;DHT22;27322;49.488;8.480;2024-02-16T05:17:57;12.80;99.90
41630;DHT22;27322;49.488;8.480;2024-02-16T05:20:23;12.80;99.90
41630;DHT22;27322;49.488;8.480;2024-02-16T05:22:48;12.80;99.90
41630;DHT22;27322;49.488;8.480;2024-02-16T05:25:18;12.80;99.90
41630;DHT22;27322;49.488;8.480;2024-02-16T05:27:44;12.80;99.90
41630;DHT22;27322;49.488;8.480;2024-02-16T05:30:11;12.80;99.90
41630;DHT22;27322;49.488;8.480;2024-02-16T05:32:38;12.80;99.90
41630;DHT22;27322;49.488;8.480;2024-02-16T05:35:05;12.80;99.90
41630;DHT22;27322;49.488;8.480;2024-02-16T05:37:37;12.80;99.90
41630;DHT22;27322;49.488;8.480;2024-02-16T05:40:07;12.70;99.90
41630;DHT22;27322;49.488;8.480;2024-02-16T05:42:44;12.70;99.90
41630;DHT22;27322;49.488;8.480;2024-02-16T05:45:10;12.70;99.90
41630;DHT22;27322;49.488;8.480;2024-02-16T05:47:36;12.70;99.90
41630;DHT22;27322;49.488;8.480;2024-02-16T05:50:04;12.70;99.90
41630;DHT22;27322;49.488;8.480;2024-02-16T05:52:30;12.60;99.90
41630;DHT22;27322;49.488;8.480;2024-02-16T05:54:56;12.60;99.90
41630;DHT22;27322;49.488;8.480;2024-02-16T05:57:21;12.60;99.90
41630;DHT22;27322;49.488;8.480;2024-02-16T05:59:48;12.60;99.90
41630;DHT22;27322;49.488;8.480;2024-02-16T06:02:14;12.60;99.90
41630;DHT22;27322;49.488;8.480;2024-02-16T06:04:40;12.60;99.90
41630;DHT22;27322;49.488;8.480;2024-02-16T06:07:06;12.50;99.90
41630;DHT22;27322;49.488;8.480;2024-02-16T06:09:32;12.50;99.90
41630;DHT22;27322;49.488;8.480;2024-02-16T06:12:04;12.50;99.90
41630;DHT22;27322;49.488;8.480;2024-02-16T06:14:33;12.50;99.90
41630;DHT22;27322;49.488;8.480;2024-02-16T06:16:59;12.50;99.90
41630;DHT22;27322;49.488;8.480;2024-02-16T06:19:25;12.50;99.90
41630;DHT22;27322;49.488;8.480;2024-02-16T06:21:53;12.60;99.90
41630;DHT22;27322;49.488;8.480;2024-02-16T06:24:22;12.60;99.90
41630;DHT22;27322;49.488;8.480;2024-02-16T06:26:48;12.60;99.90
41630;DHT22;27322;49.488;8.480;2024-02-16T06:29:14;12.60;99.90
41630;DHT22;27322;49.488;8.480;2024-02-16T06:31:40;12.60;99.90
41630;DHT22;27322;49.488;8.480;2024-02-16T06:34:05;12.60;99.90
41630;DHT22;27322;49.488;8.480;2024-02-16T06:36:31;12.60;99.90
41630;DHT22;27322;49.488;8.480;2024-02-16T06:38:56;12.60;99.90
41630;DHT22;27322;49.488;8.480;2024-02-16T06:41:22;12.70;99.90
41630;DHT22;27322;49.488;8.480;2024-02-16T06:43:48;12.70;99.90
41630;DHT22;27322;49.488;8.480;2024-02-16T06:46:14;12.70;99.90
41630;DHT22;27322;49.488;8.480;2024-02-16T06:48:40;12.60;99.90
41630;DHT22;27322;49.488;8.480;2024-02-16T06:51:05;12.70;99.90
41630;DHT22;27322;49.488;8.480;2024-02-16T06:53:32;12.70;99.90
41630;DHT22;27322;49.488;8.480;2024-02-16T06:55:58;12.70;99.90
41630;DHT22;27322;49.488;8.480;2024-02-16T06:58:23;12.70;99.90
41630;DHT22;27322;49.488;8.480;2024-02-16T07:00:49;12.70;99.90
41630;DHT22;27322;49.488;8.480;2024-02-16T07:03:15;12.70;99.90
41630;DHT22;27322;49.488;8.480;2024-02-16T07:05:41;12.70;99.90
41630;DHT22;27322;49.488;8.480;2024-02-16T07:08:06;12.70;99.90
41630;DHT22;27322;49.488;8.480;2024-02-16T07:10:33;12.70;99.90
41630;DHT22;27322;49.488;8.480;2024-02-16T07:12:59;12.70;99.90
41630;DHT22;27322;49.488;8.480;2024-02-16T07:15:25;12.80;99.90
41630;DHT22;27322;49.488;8.480;2024-02-16T07:17:52;12.80;99.90
41630;DHT22;27322;49.488;8.480;2024-02-16T07:20:18;12.70;99.90
41630;DHT22;27322;49.488;8.480;2024-02-16T07:22:43;12.70;99.90
41630;DHT22;27322;49.488;8.480;2024-02-16T07:25:11;12.70;99.90
41630;DHT22;27322;49.488;8.480;2024-02-16T07:27:38;12.70;99.90
41630;DHT22;27322;49.488;8.480;2024-02-16T07:30:04;12.70;99.90
41630;DHT22;27322;49.488;8.480;2024-02-16T07:32:30;12.70;99.90
41630;DHT22;27322;49.488;8.480;2024-02-16T07:34:55;12.70;99.90
41630;DHT22;27322;49.488;8.480;2024-02-16T07:37:21;12.70;99.90
41630;DHT22;27322;49.488;8.480;2024-02-16T07:39:46;12.70;99.90
41630;DHT22;27322;49.488;8.480;2024-02-16T07:42:12;12.70;99.90
41630;DHT22;27322;49.488;8.480;2024-02-16T07:44:41;12.70;99.90
41630;DHT22;27322;49.488;8.480;2024-02-16T07:47:07;12.70;99.90
41630;DHT22;27322;49.488;8.480;2024-02-16T07:49:32;12.70;99.90
41630;DHT22;27322;49.488;8.480;2024-02-16T07:51:58;12.80;99.90
41630;DHT22;27322;49.488;8.480;2024-02-16T07:54:24;12.80;99.90
41630;DHT22;27322;49.488;8.480;2024-02-16T07:56:49;12.70;99.90
41630;DHT22;27322;49.488;8.480;2024-02-16T07:59:15;12.80;99.90
41630;DHT22;27322;49.488;8.480;2024-02-16T08:01:41;12.80;99.90
41630;DHT22;27322;49.488;8.480;2024-02-16T08:04:09;12.80;99.90
41630;DHT22;27322;49.488;8.480;2024-02-16T08:06:35;12.80;99.90
41630;DHT22;27322;49.488;8.480;2024-02-16T08:09:01;12.80;99.90
41630;DHT22;27322;49.488;8.480;2024-02-16T08:11:27;12.80;99.90
41630;DHT22;27322;49.488;8.480;2024-02-16T08:13:53;12.80;99.90
41630;DHT22;27322;49.488;8.480;2024-02-16T08:16:21;12.80;99.90
41630;DHT22;27322;49.488;8.480;2024-02-16T08:18:46;12.80;99.90
41630;DHT22;27322;49.488;8.480;2024-02-16T08:21:12;12.80;99.90
41630;DHT22;27322;49.488;8.480;2024-02-16T08:23:38;12.80;99.90
41630;DHT22;27322;49.488;8.480;2024-02-16T08:26:03;12.90;99.90
41630;DHT22;27322;49.488;8.480;2024-02-16T08:28:29;12.90;99.90
41630;DHT22;27322;49.488;8.480;2024-02-16T08:30:55;12.90;99.90
41630;DHT22;27322;49.488;8.480;2024-02-16T08:33:20;13.00;99.90
41630;DHT22;27322;49.488;8.480;2024-02-16T08:35:46;13.00;99.90
41630;DHT22;27322;49.488;8.480;2024-02-16T08:38:12;13.00;99.90
41630;DHT22;27322;49.488;8.480;2024-02-16T08:40:38;13.00;99.90
41630;DHT22;27322;49.488;8.480;2024-02-16T08:43:04;13.10;99.90
41630;DHT22;27322;49.488;8.480;2024-02-16T08:45:30;13.10;99.90
41630;DHT22;27322;49.488;8.480;2024-02-16T08:47:56;13.10;99.90
41630;DHT22;27322;49.488;8.480;2024-02-16T08:50:23;13.10;99.90
41630;DHT22;27322;49.488;8.480;2024-02-16T08:52:49;13.10;99.90
41630;DHT22;27322;49.488;8.480;2024-02-16T08:55:15;13.20;99.90
41630;DHT22;27322;49.488;8.480;2024-02-16T08:57:41;13.10;99.90
41630;DHT22;27322;49.488;8.480;2024-02-16T09:00:07;13.20;99.90
41630;DHT22;27322;49.488;8.480;2024-02-16T09:02:33;13.20;99.90
41630;DHT22;27322;49.488;8.480;2024-02-16T09:04:59;13.20;99.90
41630;DHT22;27322;49.488;8.480;2024-02-16T09:07:24;13.20;99.90
41630;DHT22;27322;49.488;8.480;2024-02-16T09:09:51;13.20;99.90
41630;DHT22;27322;49.488;8.480;2024-02-16T09:12:17;13.30;99.90
41630;DHT22;27322;49.488;8.480;2024-02-16T09:14:42;13.30;99.90
41630;DHT22;27322;49.488;8.480;2024-02-16T09:17:08;13.30;99.90
41630;DHT22;27322;49.488;8.480;2024-02-16T09:19:34;13.30;99.90
41630;DHT22;27322;49.488;8.480;2024-02-16T09:21:59;13.30;99.90
41630;DHT22;27322;49.488;8.480;2024-02-16T09:24:27;13.30;99.90
41630;DHT22;27322;49.488;8.480;2024-02-16T09:26:55;13.30;99.90
41630;DHT22;27322;49.488;8.480;2024-02-16T09:29:20;13.40;99.90
41630;DHT22;27322;49.488;8.480;2024-02-16T09:31:49;13.40;99.90
41630;DHT22;27322;49.488;8.480;2024-02-16T09:34:14;13.40;99.90
41630;DHT22;27322;49.488;8.480;2024-02-16T09:36:40;13.40;99.90
41630;DHT22;27322;49.488;8.480;2024-02-16T09:39:05;13.50;99.90
41630;DHT22;27322;49.488;8.480;2024-02-16T09:41:34;13.50;99.90
41630;DHT22;27322;49.488;8.480;2024-02-16T09:44:03;13.50;99.90
41630;DHT22;27322;49.488;8.480;2024-02-16T09:46:30;13.60;99.90
41630;DHT22;27322;49.488;8.480;2024-02-16T09:49:02;13.60;99.90
41630;DHT22;27322;49.488;8.480;2024-02-16T09:51:35;13.60;99.90
41630;DHT22;27322;49.488;8.480;2024-02-16T09:54:01;13.60;99.90
41630;DHT22;27322;49.488;8.480;2024-02-16T09:56:28;13.70;99.90
41630;DHT22;27322;49.488;8.480;2024-02-16T09:58:53;13.70;99.90
41630;DHT22;27322;49.488;8.480;2024-02-16T10:01:21;13.80;99.90
41630;DHT22;27322;49.488;8.480;2024-02-16T10:03:47;13.90;99.90
41630;DHT22;27322;49.488;8.480;2024-02-16T10:06:15;14.00;99.90
41630;DHT22;27322;49.488;8.480;2024-02-16T10:08:53;14.10;99.90
41630;DHT22;27322;49.488;8.480;2024-02-16T10:11:21;14.20;99.90
41630;DHT22;27322;49.488;8.480;2024-02-16T10:14:02;14.30;99.90
41630;DHT22;27322;49.488;8.480;2024-02-16T10:16:28;14.40;99.90
41630;DHT22;27322;49.488;8.480;2024-02-16T10:18:55;14.50;99.90
41630;DHT22;27322;49.488;8.480;2024-02-16T10:21:29;14.60;99.90
41630;DHT22;27322;49.488;8.480;2024-02-16T10:24:01;14.80;99.90
41630;DHT22;27322;49.488;8.480;2024-02-16T10:26:29;14.90;99.90
41630;DHT22;27322;49.488;8.480;2024-02-16T10:28:56;15.00;99.90
41630;DHT22;27322;49.488;8.480;2024-02-16T10:31:23;15.10;99.90
41630;DHT22;27322;49.488;8.480;2024-02-16T10:33:59;15.20;99.90
41630;DHT22;27322;49.488;8.480;2024-02-16T10:36:25;15.30;99.90
41630;DHT22;27322;49.488;8.480;2024-02-16T10:38:54;15.40;99.90
41630;DHT22;27322;49.488;8.480;2024-02-16T10:41:27;15.40;99.90
41630;DHT22;27322;49.488;8.480;2024-02-16T10:43:55;15.50;99.90
41630;DHT22;27322;49.488;8.480;2024-02-16T10:46:22;15.60;99.90
41630;DHT22;27322;49.488;8.480;2024-02-16T10:48:48;15.60;99.90
41630;DHT22;27322;49.488;8.480;2024-02-16T10:51:16;15.60;99.90
41630;DHT22;27322;49.488;8.480;2024-02-16T10:53:45;15.70;99.90
41630;DHT22;27322;49.488;8.480;2024-02-16T10:56:13;15.70;99.90
41630;DHT22;27322;49.488;8.480;2024-02-16T10:58:39;15.80;99.90
41630;DHT22;27322;49.488;8.480;2024-02-16T11:01:09;15.80;99.90
41630;DHT22;27322;49.488;8.480;2024-02-16T11:03:38;15.90;99.90
41630;DHT22;27322;49.488;8.480;2024-02-16T11:06:17;15.90;99.90
41630;DHT22;27322;49.488;8.480;2024-02-16T11:08:43;15.90;99.90
41630;DHT22;27322;49.488;8.480;2024-02-16T11:11:09;15.80;99.90
41630;DHT22;27322;49.488;8.480;2024-02-16T11:13:38;15.90;99.90
41630;DHT22;27322;49.488;8.480;2024-02-16T11:16:09;15.80;99.90
41630;DHT22;27322;49.488;8.480;2024-02-16T11:18:42;15.90;99.90
41630;DHT22;27322;49.488;8.480;2024-02-16T11:21:15;15.90;99.90
41630;DHT22;27322;49.488;8.480;2024-02-16T11:23:41;16.00;99.90
41630;DHT22;27322;49.488;8.480;2024-02-16T11:26:12;16.10;99.90
41630;DHT22;27322;49.488;8.480;2024-02-16T11:28:40;16.10;99.90
41630;DHT22;27322;49.488;8.480;2024-02-16T11:31:06;16.10;99.90
41630;DHT22;27322;49.488;8.480;2024-02-16T11:33:35;16.20;99.90
41630;DHT22;27322;49.488;8.480;2024-02-16T11:36:04;16.20;99.90
41630;DHT22;27322;49.488;8.480;2024-02-16T11:38:31;16.30;99.90
41630;DHT22;27322;49.488;8.480;2024-02-16T11:41:04;16.30;99.90
41630;DHT22;27322;49.488;8.480;2024-02-16T11:43:31;16.40;99.90
41630;DHT22;27322;49.488;8.480;2024-02-16T11:45:58;16.50;99.90
41630;DHT22;27322;49.488;8.480;2024-02-16T11:48:25;16.50;99.90
41630;DHT22;27322;49.488;8.480;2024-02-16T11:51:00;16.50;99.90
41630;DHT22;27322;49.488;8.480;2024-02-16T11:53:25;16.50;99.90
41630;DHT22;27322;49.488;8.480;2024-02-16T11:55:51;16.50;99.90
41630;DHT22;27322;49.488;8.480;2024-02-16T11:58:18;16.40;99.90
41630;DHT22;27322;49.488;8.480;2024-02-16T12:00:45;16.40;99.90
41630;DHT22;27322;49.488;8.480;2024-02-16T12:03:11;16.40;99.90
41630;DHT22;27322;49.488;8.480;2024-02-16T12:05:37;16.30;99.90
41630;DHT22;27322;49.488;8.480;2024-02-16T12:08:03;16.30;99.90
41630;DHT22;27322;49.488;8.480;2024-02-16T12:10:31;16.20;99.90
41630;DHT22;27322;49.488;8.480;2024-02-16T12:12:58;16.20;99.90
41630;DHT22;27322;49.488;8.480;2024-02-16T12:15:23;16.20;99.90
41630;DHT22;27322;49.488;8.480;2024-02-16T12:17:58;16.20;99.90
41630;DHT22;27322;49.488;8.480;2024-02-16T12:20:25;16.10;99.90
41630;DHT22;27322;49.488;8.480;2024-02-16T12:22:51;16.10;99.90
41630;DHT22;27322;49.488;8.480;2024-02-16T12:25:17;16.20;99.90
41630;DHT22;27322;49.488;8.480;2024-02-16T12:27:42;16.20;99.90
41630;DHT22;27322;49.488;8.480;2024-02-16T12:30:08;16.20;99.90
41630;DHT22;27322;49.488;8.480;2024-02-16T12:32:34;16.20;99.90
41630;DHT22;27322;49.488;8.480;2024-02-16T12:35:00;16.30;99.90
41630;DHT22;27322;49.488;8.480;2024-02-16T12:37:25;16.20;99.90
41630;DHT22;27322;49.488;8.480;2024-02-16T12:39:51;16.30;99.90
41630;DHT22;27322;49.488;8.480;2024-02-16T12:42:17;16.20;99.90
41630;DHT22;27322;49.488;8.480;2024-02-16T12:44:42;16.20;99.90
41630;DHT22;27322;49.488;8.480;2024-02-16T12:47:08;16.20;99.90
41630;DHT22;27322;49.488;8.480;2024-02-16T12:49:33;16.20;99.90
41630;DHT22;27322;49.488;8.480;2024-02-16T12:52:01;16.20;99.90
41630;DHT22;27322;49.488;8.480;2024-02-16T12:54:26;16.10;99.90
41630;DHT22;27322;49.488;8.480;2024-02-16T12:56:52;16.20;99.90
41630;DHT22;27322;49.488;8.480;2024-02-16T12:59:18;16.10;99.90
41630;DHT22;27322;49.488;8.480;2024-02-16T13:01:45;16.10;99.90
41630;DHT22;27322;49.488;8.480;2024-02-16T13:04:11;16.20;99.90
41630;DHT22;27322;49.488;8.480;2024-02-16T13:06:38;16.10;99.90
41630;DHT22;27322;49.488;8.480;2024-02-16T13:09:03;16.20;99.90
41630;DHT22;27322;49.488;8.480;2024-02-16T13:11:29;16.20;99.90
41630;DHT22;27322;49.488;8.480;2024-02-16T13:13:55;16.20;99.90
41630;DHT22;27322;49.488;8.480;2024-02-16T13:16:21;16.20;99.90
41630;DHT22;27322;49.488;8.480;2024-02-16T13:18:46;16.30;99.90
41630;DHT22;27322;49.488;8.480;2024-02-16T13:21:12;16.30;99.90
41630;DHT22;27322;49.488;8.480;2024-02-16T13:23:38;16.30;99.90
41630;DHT22;27322;49.488;8.480;2024-02-16T13:26:04;16.30;99.90
41630;DHT22;27322;49.488;8.480;2024-02-16T13:28:29;16.30;99.90
41630;DHT22;27322;49.488;8.480;2024-02-16T13:30:55;16.30;99.90
41630;DHT22;27322;49.488;8.480;2024-02-16T13:33:21;16.30;99.90
41630;DHT22;27322;49.488;8.480;2024-02-16T13:35:47;16.30;99.90
41630;DHT22;27322;49.488;8.480;2024-02-16T13:38:12;16.30;99.90
41630;DHT22;27322;49.488;8.480;2024-02-16T13:40:39;16.30;99.90
41630;DHT22;27322;49.488;8.480;2024-02-16T13:43:05;16.20;99.90
41630;DHT22;27322;49.488;8.480;2024-02-16T13:45:50;16.20;99.90
41630;DHT22;27322;49.488;8.480;2024-02-16T13:48:16;16.20;99.90
41630;DHT22;27322;49.488;8.480;2024-02-16T13:50:45;16.20;99.90
41630;DHT22;27322;49.488;8.480;2024-02-16T13:53:11;16.10;99.90
41630;DHT22;27322;49.488;8.480;2024-02-16T13:55:37;16.10;99.90
41630;DHT22;27322;49.488;8.480;2024-02-16T13:58:02;16.10;99.90
41630;DHT22;27322;49.488;8.480;2024-02-16T14:00:28;16.10;99.90
41630;DHT22;27322;49.488;8.480;2024-02-16T14:02:53;16.10;99.90
41630;DHT22;27322;49.488;8.480;2024-02-16T14:05:19;16.00;99.90
41630;DHT22;27322;49.488;8.480;2024-02-16T14:07:46;16.00;99.90
41630;DHT22;27322;49.488;8.480;2024-02-16T14:10:11;16.00;99.90
41630;DHT22;27322;49.488;8.480;2024-02-16T14:12:37;15.90;99.90
41630;DHT22;27322;49.488;8.480;2024-02-16T14:15:03;15.90;99.90
41630;DHT22;27322;49.488;8.480;2024-02-16T14:17:28;15.90;99.90
41630;DHT22;27322;49.488;8.480;2024-02-16T14:19:54;15.90;99.90
41630;DHT22;27322;49.488;8.480;2024-02-16T14:22:20;15.90;99.90
41630;DHT22;27322;49.488;8.480;2024-02-16T14:24:45;15.80;99.90
41630;DHT22;27322;49.488;8.480;2024-02-16T14:27:11;15.80;99.90
41630;DHT22;27322;49.488;8.480;2024-02-16T14:29:36;15.80;99.90
41630;DHT22;27322;49.488;8.480;2024-02-16T14:32:02;15.80;99.90
41630;DHT22;27322;49.488;8.480;2024-02-16T14:34:28;15.80;99.90
41630;DHT22;27322;49.488;8.480;2024-02-16T14:36:54;15.70;99.90
41630;DHT22;27322;49.488;8.480;2024-02-16T14:39:20;15.70;99.90
41630;DHT22;27322;49.488;8.480;2024-02-16T14:41:45;15.60;99.90
41630;DHT22;27322;49.488;8.480;2024-02-16T14:44:11;15.60;99.90
41630;DHT22;27322;49.488;8.480;2024-02-16T14:46:36;15.50;99.90
41630;DHT22;27322;49.488;8.480;2024-02-16T14:49:02;15.50;99.90
41630;DHT22;27322;49.488;8.480;2024-02-16T14:51:28;15.40;99.90
41630;DHT22;27322;49.488;8.480;2024-02-16T14:53:53;15.40;99.90
41630;DHT22;27322;49.488;8.480;2024-02-16T14:56:19;15.40;99.90
41630;DHT22;27322;49.488;8.480;2024-02-16T14:58:47;15.30;99.90
41630;DHT22;27322;49.488;8.480;2024-02-16T15:01:13;15.30;99.90
41630;DHT22;27322;49.488;8.480;2024-02-16T15:03:39;15.30;99.90
41630;DHT22;27322;49.488;8.480;2024-02-16T15:06:04;15.20;99.90
41630;DHT22;27322;49.488;8.480;2024-02-16T15:08:31;15.20;99.90
41630;DHT22;27322;49.488;8.480;2024-02-16T15:10:56;15.20;99.90
41630;DHT22;27322;49.488;8.480;2024-02-16T15:13:22;15.20;99.90
41630;DHT22;27322;49.488;8.480;2024-02-16T15:15:50;15.10;99.90
41630;DHT22;27322;49.488;8.480;2024-02-16T15:18:15;15.10;99.90
41630;DHT22;27322;49.488;8.480;2024-02-16T15:20:41;15.10;99.90
41630;DHT22;27322;49.488;8.480;2024-02-16T15:23:06;15.10;99.90
41630;DHT22;27322;49.488;8.480;2024-02-16T15:25:33;15.10;99.90